Terminal Aerodrome Forecast
Issued by NWS

Home | Current Version | Previous Version | Text Only | Print | Product List | Glossary On
Versions: 1 2 3 4 5 6 7 8 9 10 11 12 13
000
FTUS43 KBIS 221100
TAFDIK
TAF
KDIK 221132Z 2212/2312 16006KT P6SM SKC
     FM221700 15015G22KT P6SM SKC
     FM230100 13008KT P6SM SCT120=

USA.gov is the U.S. government's official web portal to all federal, state and local government web resources and services.